sensor_id;sensor_type;location;lat;lon;timestamp;temperature;humidity
74484;SHT31;62942;52.462;10.846;2022-11-20T00:00:36;-1.1;86.6
74484;SHT31;62942;52.462;10.846;2022-11-20T00:01:46;-1.1;86.6
74484;SHT31;62942;52.462;10.846;2022-11-20T00:02:56;-1.1;86.6
74484;SHT31;62942;52.462;10.846;2022-11-20T00:04:06;-1.1;86.6
74484;SHT31;62942;52.462;10.846;2022-11-20T00:05:06;-1.1;86.7
74484;SHT31;62942;52.462;10.846;2022-11-20T00:06:07;-1.1;86.7
74484;SHT31;62942;52.462;10.846;2022-11-20T00:07:16;-1.1;86.7
74484;SHT31;62942;52.462;10.846;2022-11-20T00:08:26;-1.1;86.7
74484;SHT31;62942;52.462;10.846;2022-11-20T00:09:36;-1.1;86.8
74484;SHT31;62942;52.462;10.846;2022-11-20T00:10:46;-1.1;86.8
74484;SHT31;62942;52.462;10.846;2022-11-20T00:11:46;-1.1;86.8
74484;SHT31;62942;52.462;10.846;2022-11-20T00:12:46;-1.1;86.8
74484;SHT31;62942;52.462;10.846;2022-11-20T00:13:46;-1.1;86.8
74484;SHT31;62942;52.462;10.846;2022-11-20T00:14:56;-1.1;86.8
74484;SHT31;62942;52.462;10.846;2022-11-20T00:15:56;-1.1;86.8
74484;SHT31;62942;52.462;10.846;2022-11-20T00:17:06;-1.1;86.8
74484;SHT31;62942;52.462;10.846;2022-11-20T00:18:06;-1.1;86.8
74484;SHT31;62942;52.462;10.846;2022-11-20T00:19:16;-1.1;86.8
74484;SHT31;62942;52.462;10.846;2022-11-20T00:20:26;-1.1;86.8
74484;SHT31;62942;52.462;10.846;2022-11-20T00:21:26;-1.1;86.8
74484;SHT31;62942;52.462;10.846;2022-11-20T00:22:36;-1.1;86.9
74484;SHT31;62942;52.462;10.846;2022-11-20T00:23:46;-1.1;86.9
74484;SHT31;62942;52.462;10.846;2022-11-20T00:24:55;-1.1;86.9
74484;SHT31;62942;52.462;10.846;2022-11-20T00:25:56;-1.1;86.9
74484;SHT31;62942;52.462;10.846;2022-11-20T00:26:56;-1.1;87
74484;SHT31;62942;52.462;10.846;2022-11-20T00:28:06;-1.1;86.9
74484;SHT31;62942;52.462;10.846;2022-11-20T00:29:15;-1.1;86.9
74484;SHT31;62942;52.462;10.846;2022-11-20T00:30:16;-1.1;86.8
74484;SHT31;62942;52.462;10.846;2022-11-20T00:31:26;-1.1;86.8
74484;SHT31;62942;52.462;10.846;2022-11-20T00:32:35;-1.1;86.9
74484;SHT31;62942;52.462;10.846;2022-11-20T00:33:35;-1.1;86.9
74484;SHT31;62942;52.462;10.846;2022-11-20T00:34:45;-1.1;86.9
74484;SHT31;62942;52.462;10.846;2022-11-20T00:35:46;-1.1;86.9
74484;SHT31;62942;52.462;10.846;2022-11-20T00:36:55;-1.1;86.8
74484;SHT31;62942;52.462;10.846;2022-11-20T00:37:55;-1.1;86.8
74484;SHT31;62942;52.462;10.846;2022-11-20T00:38:56;-1.1;86.8
74484;SHT31;62942;52.462;10.846;2022-11-20T00:40:06;-1.1;86.8
74484;SHT31;62942;52.462;10.846;2022-11-20T00:41:16;-1.1;86.8
74484;SHT31;62942;52.462;10.846;2022-11-20T00:42:26;-1.1;86.8
74484;SHT31;62942;52.462;10.846;2022-11-20T00:43:26;-1.1;86.7
74484;SHT31;62942;52.462;10.846;2022-11-20T00:44:35;-1.1;86.7
74484;SHT31;62942;52.462;10.846;2022-11-20T00:45:35;-1.1;86.6
74484;SHT31;62942;52.462;10.846;2022-11-20T00:46:45;-1.1;86.6
74484;SHT31;62942;52.462;10.846;2022-11-20T00:47:46;-1.1;86.6
74484;SHT31;62942;52.462;10.846;2022-11-20T00:48:46;-1.1;86.6
74484;SHT31;62942;52.462;10.846;2022-11-20T00:49:55;-1.1;86.6
74484;SHT31;62942;52.462;10.846;2022-11-20T00:50:55;-1.1;86.5
74484;SHT31;62942;52.462;10.846;2022-11-20T00:52:05;-1.1;86.5
74484;SHT31;62942;52.462;10.846;2022-11-20T00:53:05;-1.1;86.5
74484;SHT31;62942;52.462;10.846;2022-11-20T00:54:16;-1;86.4
74484;SHT31;62942;52.462;10.846;2022-11-20T00:55:25;-1;86.4
74484;SHT31;62942;52.462;10.846;2022-11-20T00:56:25;-1.1;86.4
74484;SHT31;62942;52.462;10.846;2022-11-20T00:57:25;-1;86.3
74484;SHT31;62942;52.462;10.846;2022-11-20T00:58:36;-1;86.3
74484;SHT31;62942;52.462;10.846;2022-11-20T00:59:35;-1;86.2
74484;SHT31;62942;52.462;10.846;2022-11-20T01:00:45;-1;86.2
74484;SHT31;62942;52.462;10.846;2022-11-20T01:01:45;-1;86.2
74484;SHT31;62942;52.462;10.846;2022-11-20T01:02:56;-1;86.2
74484;SHT31;62942;52.462;10.846;2022-11-20T01:03:56;-1;86.2
74484;SHT31;62942;52.462;10.846;2022-11-20T01:05:06;-1;86.2
74484;SHT31;62942;52.462;10.846;2022-11-20T01:06:06;-1;86.2
74484;SHT31;62942;52.462;10.846;2022-11-20T01:07:05;-1;86.2
74484;SHT31;62942;52.462;10.846;2022-11-20T01:08:15;-1;86.2
74484;SHT31;62942;52.462;10.846;2022-11-20T01:09:25;-1;86.2
74484;SHT31;62942;52.462;10.846;2022-11-20T01:10:25;-1;86.1
74484;SHT31;62942;52.462;10.846;2022-11-20T01:11:36;-1;86.1
74484;SHT31;62942;52.462;10.846;2022-11-20T01:12:35;-1;86.1
74484;SHT31;62942;52.462;10.846;2022-11-20T01:13:46;-1;86.1
74484;SHT31;62942;52.462;10.846;2022-11-20T01:14:46;-1;86.1
74484;SHT31;62942;52.462;10.846;2022-11-20T01:15:45;-1;86
74484;SHT31;62942;52.462;10.846;2022-11-20T01:16:55;-1;85.8
74484;SHT31;62942;52.462;10.846;2022-11-20T01:17:55;-1;85.7
74484;SHT31;62942;52.462;10.846;2022-11-20T01:18:56;-1;85.7
74484;SHT31;62942;52.462;10.846;2022-11-20T01:20:06;-1;85.7
74484;SHT31;62942;52.462;10.846;2022-11-20T01:21:07;-1;85.5
74484;SHT31;62942;52.462;10.846;2022-11-20T01:22:15;-1;85.5
74484;SHT31;62942;52.462;10.846;2022-11-20T01:23:15;-1;85.5
74484;SHT31;62942;52.462;10.846;2022-11-20T01:24:25;-1;85.4
74484;SHT31;62942;52.462;10.846;2022-11-20T01:25:25;-1;85.4
74484;SHT31;62942;52.462;10.846;2022-11-20T01:26:36;-1;85.3
74484;SHT31;62942;52.462;10.846;2022-11-20T01:27:35;-1;85.2
74484;SHT31;62942;52.462;10.846;2022-11-20T01:28:36;-1;85.2
74484;SHT31;62942;52.462;10.846;2022-11-20T01:29:45;-1;85.2
74484;SHT31;62942;52.462;10.846;2022-11-20T01:30:45;-1;85.1
74484;SHT31;62942;52.462;10.846;2022-11-20T01:31:55;-1;85.1
74484;SHT31;62942;52.462;10.846;2022-11-20T01:33:05;-1;85.1
74484;SHT31;62942;52.462;10.846;2022-11-20T01:34:06;-1;85.1
74484;SHT31;62942;52.462;10.846;2022-11-20T01:35:15;-1;85
74484;SHT31;62942;52.462;10.846;2022-11-20T01:36:16;-1;85
74484;SHT31;62942;52.462;10.846;2022-11-20T01:37:25;-1;84.9
74484;SHT31;62942;52.462;10.846;2022-11-20T01:38:25;-0.9;84.9
74484;SHT31;62942;52.462;10.846;2022-11-20T01:39:26;-1;84.9
74484;SHT31;62942;52.462;10.846;2022-11-20T01:40:35;-0.9;84.8
74484;SHT31;62942;52.462;10.846;2022-11-20T01:41:35;-1;84.8
74484;SHT31;62942;52.462;10.846;2022-11-20T01:42:47;-1;84.8
74484;SHT31;62942;52.462;10.846;2022-11-20T01:43:45;-1;84.8
74484;SHT31;62942;52.462;10.846;2022-11-20T01:44:56;-1;84.8
74484;SHT31;62942;52.462;10.846;2022-11-20T01:45:58;-1;84.8
74484;SHT31;62942;52.462;10.846;2022-11-20T01:47:05;-0.9;84.7
74484;SHT31;62942;52.462;10.846;2022-11-20T01:48:15;-1;84.8
74484;SHT31;62942;52.462;10.846;2022-11-20T01:49:16;-0.9;84.8
74484;SHT31;62942;52.462;10.846;2022-11-20T01:50:26;-0.9;84.6
74484;SHT31;62942;52.462;10.846;2022-11-20T01:51:38;-0.9;84.7
74484;SHT31;62942;52.462;10.846;2022-11-20T01:52:36;-0.9;84.6
74484;SHT31;62942;52.462;10.846;2022-11-20T01:53:45;-0.9;84.5
74484;SHT31;62942;52.462;10.846;2022-11-20T01:54:46;-0.9;84.5
74484;SHT31;62942;52.462;10.846;2022-11-20T01:55:56;-0.9;84.5
74484;SHT31;62942;52.462;10.846;2022-11-20T01:57:05;-0.9;84.5
74484;SHT31;62942;52.462;10.846;2022-11-20T01:58:05;-0.9;84.6
74484;SHT31;62942;52.462;10.846;2022-11-20T01:59:16;-0.9;84.5
74484;SHT31;62942;52.462;10.846;2022-11-20T02:00:17;-0.9;84.6
74484;SHT31;62942;52.462;10.846;2022-11-20T02:01:25;-0.9;84.6
74484;SHT31;62942;52.462;10.846;2022-11-20T02:02:25;-0.9;84.6
74484;SHT31;62942;52.462;10.846;2022-11-20T02:03:25;-0.9;84.6
74484;SHT31;62942;52.462;10.846;2022-11-20T02:04:25;-0.9;84.6
74484;SHT31;62942;52.462;10.846;2022-11-20T02:05:36;-0.9;84.6
74484;SHT31;62942;52.462;10.846;2022-11-20T02:06:36;-0.9;84.6
74484;SHT31;62942;52.462;10.846;2022-11-20T02:07:45;-0.9;84.5
74484;SHT31;62942;52.462;10.846;2022-11-20T02:08:55;-0.9;84.6
74484;SHT31;62942;52.462;10.846;2022-11-20T02:10:05;-0.9;84.6
74484;SHT31;62942;52.462;10.846;2022-11-20T02:11:15;-0.9;84.6
74484;SHT31;62942;52.462;10.846;2022-11-20T02:12:25;-0.9;84.7
74484;SHT31;62942;52.462;10.846;2022-11-20T02:13:25;-0.9;84.7
74484;SHT31;62942;52.462;10.846;2022-11-20T02:14:35;-0.9;84.8
74484;SHT31;62942;52.462;10.846;2022-11-20T02:15:35;-0.9;84.7
74484;SHT31;62942;52.462;10.846;2022-11-20T02:16:46;-0.9;84.8
74484;SHT31;62942;52.462;10.846;2022-11-20T02:17:55;-0.9;84.8
74484;SHT31;62942;52.462;10.846;2022-11-20T02:18:56;-0.9;84.9
74484;SHT31;62942;52.462;10.846;2022-11-20T02:19:55;-0.9;84.9
74484;SHT31;62942;52.462;10.846;2022-11-20T02:20:56;-0.9;84.9
74484;SHT31;62942;52.462;10.846;2022-11-20T02:22:07;-0.9;85
74484;SHT31;62942;52.462;10.846;2022-11-20T02:23:07;-0.9;85
74484;SHT31;62942;52.462;10.846;2022-11-20T02:24:16;-0.8;85
74484;SHT31;62942;52.462;10.846;2022-11-20T02:25:15;-0.9;85
74484;SHT31;62942;52.462;10.846;2022-11-20T02:26:15;-0.9;85
74484;SHT31;62942;52.462;10.846;2022-11-20T02:27:25;-0.9;85
74484;SHT31;62942;52.462;10.846;2022-11-20T02:28:25;-0.9;85
74484;SHT31;62942;52.462;10.846;2022-11-20T02:29:36;-0.9;85.1
74484;SHT31;62942;52.462;10.846;2022-11-20T02:30:35;-0.9;85
74484;SHT31;62942;52.462;10.846;2022-11-20T02:31:36;-0.9;85.1
74484;SHT31;62942;52.462;10.846;2022-11-20T02:32:45;-0.9;85
74484;SHT31;62942;52.462;10.846;2022-11-20T02:33:45;-0.9;85
74484;SHT31;62942;52.462;10.846;2022-11-20T02:34:45;-0.9;85
74484;SHT31;62942;52.462;10.846;2022-11-20T02:35:55;-0.9;85.1
74484;SHT31;62942;52.462;10.846;2022-11-20T02:37:05;-0.9;85
74484;SHT31;62942;52.462;10.846;2022-11-20T02:38:05;-0.9;85
74484;SHT31;62942;52.462;10.846;2022-11-20T02:39:05;-0.9;85.1
74484;SHT31;62942;52.462;10.846;2022-11-20T02:40:06;-0.9;85.1
74484;SHT31;62942;52.462;10.846;2022-11-20T02:41:15;-0.9;85.2
74484;SHT31;62942;52.462;10.846;2022-11-20T02:42:25;-0.9;85.1
74484;SHT31;62942;52.462;10.846;2022-11-20T02:43:25;-0.9;85.1
74484;SHT31;62942;52.462;10.846;2022-11-20T02:44:25;-0.9;85.2
74484;SHT31;62942;52.462;10.846;2022-11-20T02:45:35;-0.9;85.1
74484;SHT31;62942;52.462;10.846;2022-11-20T02:46:35;-1;85.1
74484;SHT31;62942;52.462;10.846;2022-11-20T02:47:35;-0.9;85.2
74484;SHT31;62942;52.462;10.846;2022-11-20T02:48:45;-0.9;85.1
74484;SHT31;62942;52.462;10.846;2022-11-20T02:49:45;-1;85.2
74484;SHT31;62942;52.462;10.846;2022-11-20T02:50:55;-1;85.1
74484;SHT31;62942;52.462;10.846;2022-11-20T02:51:55;-1;85.2
74484;SHT31;62942;52.462;10.846;2022-11-20T02:53:05;-1;85.1
74484;SHT31;62942;52.462;10.846;2022-11-20T02:54:05;-1;85.1
74484;SHT31;62942;52.462;10.846;2022-11-20T02:55:06;-1;85.1
74484;SHT31;62942;52.462;10.846;2022-11-20T02:56:15;-1;85.1
74484;SHT31;62942;52.462;10.846;2022-11-20T02:57:25;-1;85.2
74484;SHT31;62942;52.462;10.846;2022-11-20T02:58:35;-1;85.1
74484;SHT31;62942;52.462;10.846;2022-11-20T02:59:35;-1;85.2
74484;SHT31;62942;52.462;10.846;2022-11-20T03:00:45;-1;85.2
74484;SHT31;62942;52.462;10.846;2022-11-20T03:01:45;-1;85.2
74484;SHT31;62942;52.462;10.846;2022-11-20T03:02:55;-1;85.3
74484;SHT31;62942;52.462;10.846;2022-11-20T03:03:55;-1;85.3
74484;SHT31;62942;52.462;10.846;2022-11-20T03:05:05;-1;85.3
74484;SHT31;62942;52.462;10.846;2022-11-20T03:06:15;-1.1;85.3
74484;SHT31;62942;52.462;10.846;2022-11-20T03:07:15;-1.1;85.3
74484;SHT31;62942;52.462;10.846;2022-11-20T03:08:15;-1.1;85.4
74484;SHT31;62942;52.462;10.846;2022-11-20T03:09:25;-1.1;85.4
74484;SHT31;62942;52.462;10.846;2022-11-20T03:10:25;-1.1;85.4
74484;SHT31;62942;52.462;10.846;2022-11-20T03:11:35;-1.1;85.4
74484;SHT31;62942;52.462;10.846;2022-11-20T03:12:35;-1.1;85.5
74484;SHT31;62942;52.462;10.846;2022-11-20T03:13:45;-1;85.5
74484;SHT31;62942;52.462;10.846;2022-11-20T03:14:45;-1.1;85.5
74484;SHT31;62942;52.462;10.846;2022-11-20T03:15:55;-1;85.5
74484;SHT31;62942;52.462;10.846;2022-11-20T03:17:05;-1.1;85.5
74484;SHT31;62942;52.462;10.846;2022-11-20T03:18:05;-1;85.5
74484;SHT31;62942;52.462;10.846;2022-11-20T03:19:05;-1.1;85.5
74484;SHT31;62942;52.462;10.846;2022-11-20T03:20:15;-1.1;85.5
74484;SHT31;62942;52.462;10.846;2022-11-20T03:21:16;-1;85.5
74484;SHT31;62942;52.462;10.846;2022-11-20T03:22:25;-1;85.5
74484;SHT31;62942;52.462;10.846;2022-11-20T03:23:35;-1;85.5
74484;SHT31;62942;52.462;10.846;2022-11-20T03:24:35;-1;85.5
74484;SHT31;62942;52.462;10.846;2022-11-20T03:25:45;-1;85.6
74484;SHT31;62942;52.462;10.846;2022-11-20T03:26:45;-1;85.5
74484;SHT31;62942;52.462;10.846;2022-11-20T03:27:55;-1;85.5
74484;SHT31;62942;52.462;10.846;2022-11-20T03:28:56;-1;85.5
74484;SHT31;62942;52.462;10.846;2022-11-20T03:30:06;-1;85.4
74484;SHT31;62942;52.462;10.846;2022-11-20T03:31:07;-1;85.3
74484;SHT31;62942;52.462;10.846;2022-11-20T03:32:15;-1;85.3
74484;SHT31;62942;52.462;10.846;2022-11-20T03:33:15;-1;85.3
74484;SHT31;62942;52.462;10.846;2022-11-20T03:34:25;-1;85.2
74484;SHT31;62942;52.462;10.846;2022-11-20T03:35:35;-1;85.2
74484;SHT31;62942;52.462;10.846;2022-11-20T03:36:36;-1;85.2
74484;SHT31;62942;52.462;10.846;2022-11-20T03:37:45;-1;85.1
74484;SHT31;62942;52.462;10.846;2022-11-20T03:38:45;-1;85.1
74484;SHT31;62942;52.462;10.846;2022-11-20T03:39:45;-1;85.1
74484;SHT31;62942;52.462;10.846;2022-11-20T03:40:57;-1;85.1
74484;SHT31;62942;52.462;10.846;2022-11-20T03:41:55;-1.1;85
74484;SHT31;62942;52.462;10.846;2022-11-20T03:43:05;-1.1;85
74484;SHT31;62942;52.462;10.846;2022-11-20T03:44:06;-1;84.8
74484;SHT31;62942;52.462;10.846;2022-11-20T03:45:16;-1;84.8
74484;SHT31;62942;52.462;10.846;2022-11-20T03:46:15;-1.1;84.8
74484;SHT31;62942;52.462;10.846;2022-11-20T03:47:25;-1;84.7
74484;SHT31;62942;52.462;10.846;2022-11-20T03:48:35;-1.1;84.7
74484;SHT31;62942;52.462;10.846;2022-11-20T03:49:35;-1;84.6
74484;SHT31;62942;52.462;10.846;2022-11-20T03:50:35;-1.1;84.6
74484;SHT31;62942;52.462;10.846;2022-11-20T03:51:45;-1.1;84.5
74484;SHT31;62942;52.462;10.846;2022-11-20T03:52:45;-1.1;84.5
74484;SHT31;62942;52.462;10.846;2022-11-20T03:53:56;-1.1;84.5
74484;SHT31;62942;52.462;10.846;2022-11-20T03:54:55;-1.1;84.6
74484;SHT31;62942;52.462;10.846;2022-11-20T03:56:06;-1.1;84.5
74484;SHT31;62942;52.462;10.846;2022-11-20T03:57:05;-1.1;84.5
74484;SHT31;62942;52.462;10.846;2022-11-20T03:58:15;-1.1;84.4
74484;SHT31;62942;52.462;10.846;2022-11-20T03:59:15;-1.1;84.5
74484;SHT31;62942;52.462;10.846;2022-11-20T04:00:25;-1.1;84.5
74484;SHT31;62942;52.462;10.846;2022-11-20T04:01:36;-1.1;84.5
74484;SHT31;62942;52.462;10.846;2022-11-20T04:02:45;-1.1;84.5
74484;SHT31;62942;52.462;10.846;2022-11-20T04:03:56;-1.1;84.5
74484;SHT31;62942;52.462;10.846;2022-11-20T04:04:55;-1.1;84.5
74484;SHT31;62942;52.462;10.846;2022-11-20T04:06:06;-1.1;84.5
74484;SHT31;62942;52.462;10.846;2022-11-20T04:07:05;-1.1;84.5
74484;SHT31;62942;52.462;10.846;2022-11-20T04:08:15;-1.1;84.3
74484;SHT31;62942;52.462;10.846;2022-11-20T04:09:25;-1.1;84.4
74484;SHT31;62942;52.462;10.846;2022-11-20T04:10:25;-1.1;84.3
74484;SHT31;62942;52.462;10.846;2022-11-20T04:11:36;-1.1;84.3
74484;SHT31;62942;52.462;10.846;2022-11-20T04:12:35;-1.1;84.3
74484;SHT31;62942;52.462;10.846;2022-11-20T04:13:46;-1.1;84.3
74484;SHT31;62942;52.462;10.846;2022-11-20T04:14:45;-1;84.3
74484;SHT31;62942;52.462;10.846;2022-11-20T04:15:56;-1.1;84.2
74484;SHT31;62942;52.462;10.846;2022-11-20T04:16:55;-1.1;84.2
74484;SHT31;62942;52.462;10.846;2022-11-20T04:18:05;-1.1;84.2
74484;SHT31;62942;52.462;10.846;2022-11-20T04:19:15;-1.1;84.2
74484;SHT31;62942;52.462;10.846;2022-11-20T04:20:15;-1.1;84.2
74484;SHT31;62942;52.462;10.846;2022-11-20T04:21:25;-1.1;84.2
74484;SHT31;62942;52.462;10.846;2022-11-20T04:22:25;-1.1;84.1
74484;SHT31;62942;52.462;10.846;2022-11-20T04:23:35;-1.1;84.2
74484;SHT31;62942;52.462;10.846;2022-11-20T04:24:35;-1.1;84.2
74484;SHT31;62942;52.462;10.846;2022-11-20T04:25:45;-1;84.2
74484;SHT31;62942;52.462;10.846;2022-11-20T04:26:55;-1;84.2
74484;SHT31;62942;52.462;10.846;2022-11-20T04:27:55;-1.1;84.2
74484;SHT31;62942;52.462;10.846;2022-11-20T04:28:55;-1;84.2
74484;SHT31;62942;52.462;10.846;2022-11-20T04:30:05;-1;84.1
74484;SHT31;62942;52.462;10.846;2022-11-20T04:31:16;-1;84.1
74484;SHT31;62942;52.462;10.846;2022-11-20T04:32:25;-1;84.1
74484;SHT31;62942;52.462;10.846;2022-11-20T04:33:25;-1;83.9
74484;SHT31;62942;52.462;10.846;2022-11-20T04:34:35;-1.1;84.1
74484;SHT31;62942;52.462;10.846;2022-11-20T04:35:45;-1;84
74484;SHT31;62942;52.462;10.846;2022-11-20T04:36:55;-1.1;84.1
74484;SHT31;62942;52.462;10.846;2022-11-20T04:37:55;-1;84.1
74484;SHT31;62942;52.462;10.846;2022-11-20T04:38:56;-1.1;84.1
74484;SHT31;62942;52.462;10.846;2022-11-20T04:40:05;-1.1;84.1
74484;SHT31;62942;52.462;10.846;2022-11-20T04:41:16;-1;84.1
74484;SHT31;62942;52.462;10.846;2022-11-20T04:42:25;-1;84.1
74484;SHT31;62942;52.462;10.846;2022-11-20T04:43:25;-1;84.2
74484;SHT31;62942;52.462;10.846;2022-11-20T04:44:35;-1;84.1
74484;SHT31;62942;52.462;10.846;2022-11-20T04:45:35;-1;84.2
74484;SHT31;62942;52.462;10.846;2022-11-20T04:46:45;-1;84.2
74484;SHT31;62942;52.462;10.846;2022-11-20T04:47:55;-1.1;84.2
74484;SHT31;62942;52.462;10.846;2022-11-20T04:49:05;-1;84.3
74484;SHT31;62942;52.462;10.846;2022-11-20T04:50:05;-1;84.3
74484;SHT31;62942;52.462;10.846;2022-11-20T04:51:15;-1;84.4
74484;SHT31;62942;52.462;10.846;2022-11-20T04:52:15;-1;84.4
74484;SHT31;62942;52.462;10.846;2022-11-20T04:53:25;-1;84.4
74484;SHT31;62942;52.462;10.846;2022-11-20T04:54:35;-1.1;84.4
74484;SHT31;62942;52.462;10.846;2022-11-20T04:55:35;-1;84.5
74484;SHT31;62942;52.462;10.846;2022-11-20T04:56:46;-1;84.4
74484;SHT31;62942;52.462;10.846;2022-11-20T04:57:45;-1;84.5
74484;SHT31;62942;52.462;10.846;2022-11-20T04:58:55;-1;84.4
74484;SHT31;62942;52.462;10.846;2022-11-20T05:00:05;-1;84.4
74484;SHT31;62942;52.462;10.846;2022-11-20T05:01:06;-1;84.4
74484;SHT31;62942;52.462;10.846;2022-11-20T05:02:15;-1;84.4
74484;SHT31;62942;52.462;10.846;2022-11-20T05:03:15;-1;84.4
74484;SHT31;62942;52.462;10.846;2022-11-20T05:04:25;-1;84.4
74484;SHT31;62942;52.462;10.846;2022-11-20T05:05:25;-1;84.4
74484;SHT31;62942;52.462;10.846;2022-11-20T05:06:35;-1;84.4
74484;SHT31;62942;52.462;10.846;2022-11-20T05:07:35;-1;84.5
74484;SHT31;62942;52.462;10.846;2022-11-20T05:08:45;-1;84.5
74484;SHT31;62942;52.462;10.846;2022-11-20T05:09:55;-1;84.5
74484;SHT31;62942;52.462;10.846;2022-11-20T05:11:06;-1;84.5
74484;SHT31;62942;52.462;10.846;2022-11-20T05:12:15;-1;84.5
74484;SHT31;62942;52.462;10.846;2022-11-20T05:13:26;-1;84.5
74484;SHT31;62942;52.462;10.846;2022-11-20T05:14:25;-1;84.6
74484;SHT31;62942;52.462;10.846;2022-11-20T05:15:35;-0.9;84.6
74484;SHT31;62942;52.462;10.846;2022-11-20T05:16:45;-0.9;84.6
74484;SHT31;62942;52.462;10.846;2022-11-20T05:17:55;-0.9;84.6
74484;SHT31;62942;52.462;10.846;2022-11-20T05:18:55;-0.9;84.6
74484;SHT31;62942;52.462;10.846;2022-11-20T05:20:05;-0.9;84.6
74484;SHT31;62942;52.462;10.846;2022-11-20T05:21:16;-0.9;84.6
74484;SHT31;62942;52.462;10.846;2022-11-20T05:22:15;-0.9;84.6
74484;SHT31;62942;52.462;10.846;2022-11-20T05:23:25;-0.9;84.6
74484;SHT31;62942;52.462;10.846;2022-11-20T05:24:25;-0.9;84.6
74484;SHT31;62942;52.462;10.846;2022-11-20T05:25:35;-0.9;84.6
74484;SHT31;62942;52.462;10.846;2022-11-20T05:26:45;-0.9;84.6
74484;SHT31;62942;52.462;10.846;2022-11-20T05:27:45;-0.9;84.6
74484;SHT31;62942;52.462;10.846;2022-11-20T05:28:55;-0.8;84.7
74484;SHT31;62942;52.462;10.846;2022-11-20T05:30:06;-0.8;84.7
74484;SHT31;62942;52.462;10.846;2022-11-20T05:31:05;-0.8;84.7
74484;SHT31;62942;52.462;10.846;2022-11-20T05:32:15;-0.8;84.6
74484;SHT31;62942;52.462;10.846;2022-11-20T05:33:15;-0.8;84.6
74484;SHT31;62942;52.462;10.846;2022-11-20T05:34:25;-0.8;84.6
74484;SHT31;62942;52.462;10.846;2022-11-20T05:35:25;-0.8;84.5
74484;SHT31;62942;52.462;10.846;2022-11-20T05:36:35;-0.8;84.5
74484;SHT31;62942;52.462;10.846;2022-11-20T05:37:35;-0.8;84.5
74484;SHT31;62942;52.462;10.846;2022-11-20T05:38:45;-0.8;84.5
74484;SHT31;62942;52.462;10.846;2022-11-20T05:39:45;-0.8;84.4
74484;SHT31;62942;52.462;10.846;2022-11-20T05:40:55;-0.8;84.4
74484;SHT31;62942;52.462;10.846;2022-11-20T05:41:55;-0.8;84.4
74484;SHT31;62942;52.462;10.846;2022-11-20T05:43:05;-0.8;84.4
74484;SHT31;62942;52.462;10.846;2022-11-20T05:44:05;-0.8;84.4
74484;SHT31;62942;52.462;10.846;2022-11-20T05:45:15;-0.8;84.4
74484;SHT31;62942;52.462;10.846;2022-11-20T05:46:16;-0.8;84.4
74484;SHT31;62942;52.462;10.846;2022-11-20T05:47:25;-0.8;84.4
74484;SHT31;62942;52.462;10.846;2022-11-20T05:48:25;-0.8;84.4
74484;SHT31;62942;52.462;10.846;2022-11-20T05:49:35;-0.8;84.4
74484;SHT31;62942;52.462;10.846;2022-11-20T05:50:35;-0.8;84.4
74484;SHT31;62942;52.462;10.846;2022-11-20T05:51:45;-0.8;84.4
74484;SHT31;62942;52.462;10.846;2022-11-20T05:52:45;-0.8;84.4
74484;SHT31;62942;52.462;10.846;2022-11-20T05:53:55;-0.9;84.4
74484;SHT31;62942;52.462;10.846;2022-11-20T05:55:05;-0.8;84.4
74484;SHT31;62942;52.462;10.846;2022-11-20T05:56:16;-0.8;84.4
74484;SHT31;62942;52.462;10.846;2022-11-20T05:57:15;-0.9;84.3
74484;SHT31;62942;52.462;10.846;2022-11-20T05:58:25;-0.9;84.3
74484;SHT31;62942;52.462;10.846;2022-11-20T05:59:25;-0.9;84.1
74484;SHT31;62942;52.462;10.846;2022-11-20T06:00:25;-0.9;84.2
74484;SHT31;62942;52.462;10.846;2022-11-20T06:01:35;-0.9;84.2
74484;SHT31;62942;52.462;10.846;2022-11-20T06:02:45;-0.9;84.3
74484;SHT31;62942;52.462;10.846;2022-11-20T06:03:45;-0.9;84.2
74484;SHT31;62942;52.462;10.846;2022-11-20T06:04:55;-1;84.2
74484;SHT31;62942;52.462;10.846;2022-11-20T06:05:55;-1;84.2
74484;SHT31;62942;52.462;10.846;2022-11-20T06:06:55;-1;84.3
74484;SHT31;62942;52.462;10.846;2022-11-20T06:08:05;-1;84.3
74484;SHT31;62942;52.462;10.846;2022-11-20T06:09:05;-1;84.3
74484;SHT31;62942;52.462;10.846;2022-11-20T06:10:15;-1;84.3
74484;SHT31;62942;52.462;10.846;2022-11-20T06:11:15;-1;84.4
74484;SHT31;62942;52.462;10.846;2022-11-20T06:12:25;-1;84.5
74484;SHT31;62942;52.462;10.846;2022-11-20T06:13:25;-1.1;84.5
74484;SHT31;62942;52.462;10.846;2022-11-20T06:14:25;-1;84.7
74484;SHT31;62942;52.462;10.846;2022-11-20T06:15:35;-1;84.8
74484;SHT31;62942;52.462;10.846;2022-11-20T06:16:35;-1.1;84.9
74484;SHT31;62942;52.462;10.846;2022-11-20T06:17:45;-1.1;84.9
74484;SHT31;62942;52.462;10.846;2022-11-20T06:18:45;-1.1;84.9
74484;SHT31;62942;52.462;10.846;2022-11-20T06:19:45;-1.1;85
74484;SHT31;62942;52.462;10.846;2022-11-20T06:20:59;-1.1;84.9
74484;SHT31;62942;52.462;10.846;2022-11-20T06:21:55;-1.1;85
74484;SHT31;62942;52.462;10.846;2022-11-20T06:23:05;-1.1;85
74484;SHT31;62942;52.462;10.846;2022-11-20T06:24:05;-1.1;85
74484;SHT31;62942;52.462;10.846;2022-11-20T06:25:15;-1.1;85
74484;SHT31;62942;52.462;10.846;2022-11-20T06:26:26;-1.1;84.9
74484;SHT31;62942;52.462;10.846;2022-11-20T06:27:35;-1.1;85
74484;SHT31;62942;52.462;10.846;2022-11-20T06:28:35;-1.1;85
74484;SHT31;62942;52.462;10.846;2022-11-20T06:29:35;-1.1;85
74484;SHT31;62942;52.462;10.846;2022-11-20T06:30:45;-1.1;85.1
74484;SHT31;62942;52.462;10.846;2022-11-20T06:31:55;-1.1;85.1
74484;SHT31;62942;52.462;10.846;2022-11-20T06:33:05;-1.1;85.1
74484;SHT31;62942;52.462;10.846;2022-11-20T06:34:05;-1.1;85.2
74484;SHT31;62942;52.462;10.846;2022-11-20T06:35:05;-1.1;85.2
74484;SHT31;62942;52.462;10.846;2022-11-20T06:36:16;-1.1;85.2
74484;SHT31;62942;52.462;10.846;2022-11-20T06:37:15;-1.1;85.3
74484;SHT31;62942;52.462;10.846;2022-11-20T06:38:15;-1.1;85.3
74484;SHT31;62942;52.462;10.846;2022-11-20T06:39:15;-1.1;85.3
74484;SHT31;62942;52.462;10.846;2022-11-20T06:40:25;-1.1;85.4
74484;SHT31;62942;52.462;10.846;2022-11-20T06:41:35;-1.1;85.4
74484;SHT31;62942;52.462;10.846;2022-11-20T06:42:35;-1.1;85.5
74484;SHT31;62942;52.462;10.846;2022-11-20T06:43:45;-1.1;85.5
74484;SHT31;62942;52.462;10.846;2022-11-20T06:44:45;-1.1;85.6
74484;SHT31;62942;52.462;10.846;2022-11-20T06:45:45;-1.1;85.6
74484;SHT31;62942;52.462;10.846;2022-11-20T06:46:45;-1.1;85.4
74484;SHT31;62942;52.462;10.846;2022-11-20T06:47:56;-1.1;85.4
74484;SHT31;62942;52.462;10.846;2022-11-20T06:49:05;-1.1;84.9
74484;SHT31;62942;52.462;10.846;2022-11-20T06:50:05;-1.1;85.1
74484;SHT31;62942;52.462;10.846;2022-11-20T06:51:05;-1.1;84.8
74484;SHT31;62942;52.462;10.846;2022-11-20T06:52:15;-1.1;84.9
74484;SHT31;62942;52.462;10.846;2022-11-20T06:53:25;-1.1;84.9
74484;SHT31;62942;52.462;10.846;2022-11-20T06:54:35;-1.1;84.9
74484;SHT31;62942;52.462;10.846;2022-11-20T06:55:35;-1.1;85
74484;SHT31;62942;52.462;10.846;2022-11-20T06:56:46;-1.1;85
74484;SHT31;62942;52.462;10.846;2022-11-20T06:57:55;-1.1;85.1
74484;SHT31;62942;52.462;10.846;2022-11-20T06:59:05;-1.1;85.3
74484;SHT31;62942;52.462;10.846;2022-11-20T07:00:05;-1.2;85.3
74484;SHT31;62942;52.462;10.846;2022-11-20T07:01:15;-1.1;85.4
74484;SHT31;62942;52.462;10.846;2022-11-20T07:02:15;-1.1;85.5
74484;SHT31;62942;52.462;10.846;2022-11-20T07:03:25;-1.1;85.6
74484;SHT31;62942;52.462;10.846;2022-11-20T07:04:25;-1.1;85.7
74484;SHT31;62942;52.462;10.846;2022-11-20T07:05:25;-1.1;85.8